Terminal Aerodrome Forecast
Issued by NWS

Home | Current Version | Previous Version | Text Only | Print | Product List | Glossary Off
Versions: 1 2 3 4 5 6 7 8 9 10 11 12 13 14 15 16 17

494
FTUS43 KTOP 081135 CCB
TAFFOE
TAF COR
KFOE 081135Z 0812/0912 30021G31KT P6SM -SHSN SCT025 OVC060
     FM081500 33028G40KT P6SM SCT025 OVC035
     FM082300 33024G31KT P6SM BKN035
     FM090300 32018G25KT P6SM SCT040=

USA.gov is the U.S. government's official web portal to all federal, state and local government web resources and services.